sensor_id;sensor_type;location;lat;lon;timestamp;P1;durP1;ratioP1;P2;durP2;ratioP2
22904;SDS011;11619;50.140;8.518;2023-05-10T00:00:18;1.65;;;1.02;;
22904;SDS011;11619;50.140;8.518;2023-05-10T00:02:44;1.05;;;0.95;;
22904;SDS011;11619;50.140;8.518;2023-05-10T00:05:11;2.35;;;0.85;;
22904;SDS011;11619;50.140;8.518;2023-05-10T00:07:38;1.40;;;0.77;;
22904;SDS011;11619;50.140;8.518;2023-05-10T00:10:04;2.28;;;0.75;;
22904;SDS011;11619;50.140;8.518;2023-05-10T00:12:31;0.70;;;0.70;;
22904;SDS011;11619;50.140;8.518;2023-05-10T00:14:58;0.57;;;0.55;;
22904;SDS011;11619;50.140;8.518;2023-05-10T00:17:24;0.98;;;0.60;;
22904;SDS011;11619;50.140;8.518;2023-05-10T00:19:50;0.70;;;0.65;;
22904;SDS011;11619;50.140;8.518;2023-05-10T00:22:17;1.40;;;0.60;;
22904;SDS011;11619;50.140;8.518;2023-05-10T00:24:43;0.75;;;0.50;;
22904;SDS011;11619;50.140;8.518;2023-05-10T00:27:10;2.05;;;0.73;;
22904;SDS011;11619;50.140;8.518;2023-05-10T00:29:36;1.08;;;0.60;;
22904;SDS011;11619;50.140;8.518;2023-05-10T00:32:03;1.00;;;0.70;;
22904;SDS011;11619;50.140;8.518;2023-05-10T00:34:29;0.43;;;0.43;;
22904;SDS011;11619;50.140;8.518;2023-05-10T00:36:56;1.33;;;0.70;;
22904;SDS011;11619;50.140;8.518;2023-05-10T00:39:23;1.13;;;0.55;;
22904;SDS011;11619;50.140;8.518;2023-05-10T00:41:49;0.70;;;0.55;;
22904;SDS011;11619;50.140;8.518;2023-05-10T00:44:15;0.80;;;0.50;;
22904;SDS011;11619;50.140;8.518;2023-05-10T00:46:42;0.68;;;0.60;;
22904;SDS011;11619;50.140;8.518;2023-05-10T00:49:08;1.80;;;0.55;;
22904;SDS011;11619;50.140;8.518;2023-05-10T00:51:35;1.20;;;0.70;;
22904;SDS011;11619;50.140;8.518;2023-05-10T00:54:02;3.90;;;0.73;;
22904;SDS011;11619;50.140;8.518;2023-05-10T00:56:29;0.73;;;0.63;;
22904;SDS011;11619;50.140;8.518;2023-05-10T00:58:56;1.58;;;0.50;;
22904;SDS011;11619;50.140;8.518;2023-05-10T01:01:23;0.85;;;0.70;;
22904;SDS011;11619;50.140;8.518;2023-05-10T01:03:49;1.95;;;0.70;;
22904;SDS011;11619;50.140;8.518;2023-05-10T01:06:15;0.93;;;0.63;;
22904;SDS011;11619;50.140;8.518;2023-05-10T01:08:42;4.80;;;0.88;;
22904;SDS011;11619;50.140;8.518;2023-05-10T01:11:08;0.70;;;0.70;;
22904;SDS011;11619;50.140;8.518;2023-05-10T01:13:36;0.93;;;0.63;;
22904;SDS011;11619;50.140;8.518;2023-05-10T01:16:04;0.90;;;0.60;;
22904;SDS011;11619;50.140;8.518;2023-05-10T01:18:31;1.02;;;0.60;;
22904;SDS011;11619;50.140;8.518;2023-05-10T01:21:04;1.00;;;0.52;;
22904;SDS011;11619;50.140;8.518;2023-05-10T01:32:25;0.60;;;0.60;;
22904;SDS011;11619;50.140;8.518;2023-05-10T01:34:59;0.80;;;0.60;;
22904;SDS011;11619;50.140;8.518;2023-05-10T01:37:35;1.55;;;0.80;;
22904;SDS011;11619;50.140;8.518;2023-05-10T01:42:37;0.52;;;0.50;;
22904;SDS011;11619;50.140;8.518;2023-05-10T01:45:09;1.27;;;0.68;;
22904;SDS011;11619;50.140;8.518;2023-05-10T01:47:44;0.80;;;0.80;;
22904;SDS011;11619;50.140;8.518;2023-05-10T01:50:19;0.80;;;0.80;;
22904;SDS011;11619;50.140;8.518;2023-05-10T01:52:50;1.08;;;0.60;;
22904;SDS011;11619;50.140;8.518;2023-05-10T01:55:18;0.73;;;0.60;;
22904;SDS011;11619;50.140;8.518;2023-05-10T01:57:46;1.73;;;0.68;;
22904;SDS011;11619;50.140;8.518;2023-05-10T02:00:14;3.58;;;0.50;;
22904;SDS011;11619;50.140;8.518;2023-05-10T02:02:44;1.10;;;0.50;;
22904;SDS011;11619;50.140;8.518;2023-05-10T02:05:15;3.38;;;0.70;;
22904;SDS011;11619;50.140;8.518;2023-05-10T02:07:42;0.63;;;0.60;;
22904;SDS011;11619;50.140;8.518;2023-05-10T02:10:10;0.75;;;0.60;;
22904;SDS011;11619;50.140;8.518;2023-05-10T02:12:41;1.85;;;0.50;;
22904;SDS011;11619;50.140;8.518;2023-05-10T02:15:08;0.82;;;0.50;;
22904;SDS011;11619;50.140;8.518;2023-05-10T02:17:37;1.73;;;0.63;;
22904;SDS011;11619;50.140;8.518;2023-05-10T02:20:04;2.28;;;0.65;;
22904;SDS011;11619;50.140;8.518;2023-05-10T02:22:33;1.80;;;0.60;;
22904;SDS011;11619;50.140;8.518;2023-05-10T02:25:01;2.72;;;0.60;;
22904;SDS011;11619;50.140;8.518;2023-05-10T02:27:28;0.60;;;0.60;;
22904;SDS011;11619;50.140;8.518;2023-05-10T02:29:55;0.98;;;0.70;;
22904;SDS011;11619;50.140;8.518;2023-05-10T02:32:24;0.52;;;0.52;;
22904;SDS011;11619;50.140;8.518;2023-05-10T02:34:51;1.67;;;0.80;;
22904;SDS011;11619;50.140;8.518;2023-05-10T02:37:19;2.58;;;0.80;;
22904;SDS011;11619;50.140;8.518;2023-05-10T02:39:49;0.60;;;0.60;;
22904;SDS011;11619;50.140;8.518;2023-05-10T02:42:16;2.33;;;0.70;;
22904;SDS011;11619;50.140;8.518;2023-05-10T02:44:47;1.30;;;0.80;;
22904;SDS011;11619;50.140;8.518;2023-05-10T02:47:14;2.00;;;0.90;;
22904;SDS011;11619;50.140;8.518;2023-05-10T02:49:41;1.15;;;0.88;;
22904;SDS011;11619;50.140;8.518;2023-05-10T02:52:07;1.90;;;0.75;;
22904;SDS011;11619;50.140;8.518;2023-05-10T02:54:39;1.10;;;1.00;;
22904;SDS011;11619;50.140;8.518;2023-05-10T02:57:07;2.03;;;1.13;;
22904;SDS011;11619;50.140;8.518;2023-05-10T02:59:35;1.10;;;1.00;;
22904;SDS011;11619;50.140;8.518;2023-05-10T03:02:01;1.10;;;1.00;;
22904;SDS011;11619;50.140;8.518;2023-05-10T03:04:28;1.60;;;0.90;;
22904;SDS011;11619;50.140;8.518;2023-05-10T03:06:56;0.80;;;0.80;;
22904;SDS011;11619;50.140;8.518;2023-05-10T03:09:22;3.15;;;1.10;;
22904;SDS011;11619;50.140;8.518;2023-05-10T03:11:52;1.52;;;0.80;;
22904;SDS011;11619;50.140;8.518;2023-05-10T03:17:01;1.38;;;1.00;;
22904;SDS011;11619;50.140;8.518;2023-05-10T03:19:53;2.35;;;1.00;;
22904;SDS011;11619;50.140;8.518;2023-05-10T03:22:25;0.70;;;0.70;;
22904;SDS011;11619;50.140;8.518;2023-05-10T03:25:04;1.00;;;1.00;;
22904;SDS011;11619;50.140;8.518;2023-05-10T03:27:32;2.70;;;1.33;;
22904;SDS011;11619;50.140;8.518;2023-05-10T03:30:00;1.60;;;1.17;;
22904;SDS011;11619;50.140;8.518;2023-05-10T03:32:28;4.07;;;1.10;;
22904;SDS011;11619;50.140;8.518;2023-05-10T03:34:56;4.55;;;1.25;;
22904;SDS011;11619;50.140;8.518;2023-05-10T03:37:22;2.05;;;1.13;;
22904;SDS011;11619;50.140;8.518;2023-05-10T03:39:48;3.88;;;1.20;;
22904;SDS011;11619;50.140;8.518;2023-05-10T03:42:15;1.63;;;1.10;;
22904;SDS011;11619;50.140;8.518;2023-05-10T03:44:43;1.92;;;1.58;;
22904;SDS011;11619;50.140;8.518;2023-05-10T03:47:10;1.73;;;1.50;;
22904;SDS011;11619;50.140;8.518;2023-05-10T03:49:36;1.33;;;1.23;;
22904;SDS011;11619;50.140;8.518;2023-05-10T03:52:02;2.45;;;1.83;;
22904;SDS011;11619;50.140;8.518;2023-05-10T03:54:29;2.97;;;2.25;;
22904;SDS011;11619;50.140;8.518;2023-05-10T03:56:55;2.50;;;2.30;;
22904;SDS011;11619;50.140;8.518;2023-05-10T03:59:22;2.55;;;1.80;;
22904;SDS011;11619;50.140;8.518;2023-05-10T04:01:48;6.13;;;2.85;;
22904;SDS011;11619;50.140;8.518;2023-05-10T04:04:14;4.97;;;3.22;;
22904;SDS011;11619;50.140;8.518;2023-05-10T04:06:41;3.60;;;3.30;;
22904;SDS011;11619;50.140;8.518;2023-05-10T04:09:08;2.97;;;2.70;;
22904;SDS011;11619;50.140;8.518;2023-05-10T04:11:34;2.75;;;2.50;;
22904;SDS011;11619;50.140;8.518;2023-05-10T04:14:00;4.80;;;2.90;;
22904;SDS011;11619;50.140;8.518;2023-05-10T04:16:27;2.60;;;2.40;;
22904;SDS011;11619;50.140;8.518;2023-05-10T04:18:53;2.15;;;1.90;;
22904;SDS011;11619;50.140;8.518;2023-05-10T04:21:20;3.08;;;2.55;;
22904;SDS011;11619;50.140;8.518;2023-05-10T04:23:46;2.42;;;2.15;;
22904;SDS011;11619;50.140;8.518;2023-05-10T04:26:13;2.85;;;2.40;;
22904;SDS011;11619;50.140;8.518;2023-05-10T04:28:39;4.10;;;2.08;;
22904;SDS011;11619;50.140;8.518;2023-05-10T04:31:06;2.50;;;2.30;;
22904;SDS011;11619;50.140;8.518;2023-05-10T04:33:34;3.47;;;2.25;;
22904;SDS011;11619;50.140;8.518;2023-05-10T04:36:01;3.90;;;2.50;;
22904;SDS011;11619;50.140;8.518;2023-05-10T04:38:29;2.00;;;1.88;;
22904;SDS011;11619;50.140;8.518;2023-05-10T04:41:05;3.03;;;2.10;;
22904;SDS011;11619;50.140;8.518;2023-05-10T04:43:35;2.40;;;2.05;;
22904;SDS011;11619;50.140;8.518;2023-05-10T04:46:02;2.38;;;2.13;;
22904;SDS011;11619;50.140;8.518;2023-05-10T04:48:29;2.83;;;2.10;;
22904;SDS011;11619;50.140;8.518;2023-05-10T04:50:55;3.17;;;2.60;;
22904;SDS011;11619;50.140;8.518;2023-05-10T04:53:22;2.63;;;2.40;;
22904;SDS011;11619;50.140;8.518;2023-05-10T04:55:48;2.35;;;2.15;;
22904;SDS011;11619;50.140;8.518;2023-05-10T04:58:15;5.70;;;2.30;;
22904;SDS011;11619;50.140;8.518;2023-05-10T05:00:41;3.15;;;2.00;;
22904;SDS011;11619;50.140;8.518;2023-05-10T05:03:08;2.72;;;2.05;;
22904;SDS011;11619;50.140;8.518;2023-05-10T05:05:34;4.70;;;2.28;;
22904;SDS011;11619;50.140;8.518;2023-05-10T05:08:01;6.47;;;1.80;;
22904;SDS011;11619;50.140;8.518;2023-05-10T05:10:27;3.65;;;2.00;;
22904;SDS011;11619;50.140;8.518;2023-05-10T05:12:54;1.90;;;1.70;;
22904;SDS011;11619;50.140;8.518;2023-05-10T05:15:20;3.08;;;1.63;;
22904;SDS011;11619;50.140;8.518;2023-05-10T05:17:47;1.90;;;1.65;;
22904;SDS011;11619;50.140;8.518;2023-05-10T05:20:13;2.65;;;1.65;;
22904;SDS011;11619;50.140;8.518;2023-05-10T05:22:40;3.05;;;1.85;;
22904;SDS011;11619;50.140;8.518;2023-05-10T05:25:06;3.33;;;2.17;;
22904;SDS011;11619;50.140;8.518;2023-05-10T05:27:33;2.50;;;1.90;;
22904;SDS011;11619;50.140;8.518;2023-05-10T05:29:59;4.50;;;2.00;;
22904;SDS011;11619;50.140;8.518;2023-05-10T05:32:26;3.95;;;1.73;;
22904;SDS011;11619;50.140;8.518;2023-05-10T05:34:52;12.50;;;3.63;;
22904;SDS011;11619;50.140;8.518;2023-05-10T05:37:19;7.65;;;3.78;;
22904;SDS011;11619;50.140;8.518;2023-05-10T05:39:47;2.22;;;2.05;;
22904;SDS011;11619;50.140;8.518;2023-05-10T05:42:13;4.20;;;2.58;;
22904;SDS011;11619;50.140;8.518;2023-05-10T05:44:40;5.63;;;2.72;;
22904;SDS011;11619;50.140;8.518;2023-05-10T05:47:07;2.45;;;1.95;;
22904;SDS011;11619;50.140;8.518;2023-05-10T05:49:33;1.83;;;1.63;;
22904;SDS011;11619;50.140;8.518;2023-05-10T05:52:03;3.83;;;2.10;;
22904;SDS011;11619;50.140;8.518;2023-05-10T05:54:30;1.90;;;1.60;;
22904;SDS011;11619;50.140;8.518;2023-05-10T05:56:57;1.75;;;1.52;;
22904;SDS011;11619;50.140;8.518;2023-05-10T05:59:26;7.53;;;2.03;;
22904;SDS011;11619;50.140;8.518;2023-05-10T06:01:53;2.17;;;1.48;;
22904;SDS011;11619;50.140;8.518;2023-05-10T06:04:20;3.30;;;1.70;;
22904;SDS011;11619;50.140;8.518;2023-05-10T06:06:47;5.70;;;2.05;;
22904;SDS011;11619;50.140;8.518;2023-05-10T06:09:13;3.13;;;1.67;;
22904;SDS011;11619;50.140;8.518;2023-05-10T06:11:39;2.70;;;2.50;;
22904;SDS011;11619;50.140;8.518;2023-05-10T06:14:06;2.25;;;2.03;;
22904;SDS011;11619;50.140;8.518;2023-05-10T06:16:34;2.13;;;1.77;;
22904;SDS011;11619;50.140;8.518;2023-05-10T06:19:00;4.28;;;1.98;;
22904;SDS011;11619;50.140;8.518;2023-05-10T06:21:27;2.30;;;2.10;;
22904;SDS011;11619;50.140;8.518;2023-05-10T06:23:53;3.63;;;1.95;;
22904;SDS011;11619;50.140;8.518;2023-05-10T06:26:20;4.03;;;2.10;;
22904;SDS011;11619;50.140;8.518;2023-05-10T06:28:46;4.50;;;1.85;;
22904;SDS011;11619;50.140;8.518;2023-05-10T06:31:13;2.80;;;2.00;;
22904;SDS011;11619;50.140;8.518;2023-05-10T06:33:39;3.17;;;2.30;;
22904;SDS011;11619;50.140;8.518;2023-05-10T06:36:08;3.55;;;2.20;;
22904;SDS011;11619;50.140;8.518;2023-05-10T06:38:34;2.78;;;2.20;;
22904;SDS011;11619;50.140;8.518;2023-05-10T06:41:00;4.60;;;2.03;;
22904;SDS011;11619;50.140;8.518;2023-05-10T06:43:27;2.28;;;2.03;;
22904;SDS011;11619;50.140;8.518;2023-05-10T06:45:55;4.65;;;2.30;;
22904;SDS011;11619;50.140;8.518;2023-05-10T06:48:22;4.20;;;2.30;;
22904;SDS011;11619;50.140;8.518;2023-05-10T06:50:49;5.68;;;2.60;;
22904;SDS011;11619;50.140;8.518;2023-05-10T06:53:15;3.38;;;2.08;;
22904;SDS011;11619;50.140;8.518;2023-05-10T06:55:41;5.85;;;2.80;;
22904;SDS011;11619;50.140;8.518;2023-05-10T06:58:08;5.35;;;2.40;;
22904;SDS011;11619;50.140;8.518;2023-05-10T07:00:34;4.45;;;2.10;;
22904;SDS011;11619;50.140;8.518;2023-05-10T07:03:01;3.33;;;2.15;;
22904;SDS011;11619;50.140;8.518;2023-05-10T07:05:27;4.28;;;2.30;;
22904;SDS011;11619;50.140;8.518;2023-05-10T07:07:55;4.03;;;2.55;;
22904;SDS011;11619;50.140;8.518;2023-05-10T07:10:21;2.28;;;2.08;;
22904;SDS011;11619;50.140;8.518;2023-05-10T07:12:48;6.70;;;2.67;;
22904;SDS011;11619;50.140;8.518;2023-05-10T07:15:14;5.13;;;2.67;;
22904;SDS011;11619;50.140;8.518;2023-05-10T07:17:42;6.75;;;3.05;;
22904;SDS011;11619;50.140;8.518;2023-05-10T07:20:11;3.60;;;2.78;;
22904;SDS011;11619;50.140;8.518;2023-05-10T07:22:38;5.57;;;2.90;;
22904;SDS011;11619;50.140;8.518;2023-05-10T07:25:04;6.78;;;2.72;;
22904;SDS011;11619;50.140;8.518;2023-05-10T07:27:31;21.55;;;3.17;;
22904;SDS011;11619;50.140;8.518;2023-05-10T07:29:58;4.70;;;3.17;;
22904;SDS011;11619;50.140;8.518;2023-05-10T07:32:24;6.43;;;3.13;;
22904;SDS011;11619;50.140;8.518;2023-05-10T07:34:51;3.15;;;2.83;;
22904;SDS011;11619;50.140;8.518;2023-05-10T07:37:18;7.57;;;3.03;;
22904;SDS011;11619;50.140;8.518;2023-05-10T07:39:44;5.65;;;3.45;;
22904;SDS011;11619;50.140;8.518;2023-05-10T07:42:11;9.68;;;3.28;;
22904;SDS011;11619;50.140;8.518;2023-05-10T07:44:37;7.20;;;2.92;;
22904;SDS011;11619;50.140;8.518;2023-05-10T07:47:04;4.50;;;2.95;;
22904;SDS011;11619;50.140;8.518;2023-05-10T07:49:30;2.53;;;2.33;;
22904;SDS011;11619;50.140;8.518;2023-05-10T07:51:56;2.85;;;2.58;;
22904;SDS011;11619;50.140;8.518;2023-05-10T07:54:23;4.63;;;2.70;;
22904;SDS011;11619;50.140;8.518;2023-05-10T07:56:49;6.47;;;2.55;;
22904;SDS011;11619;50.140;8.518;2023-05-10T07:59:17;4.00;;;2.80;;
22904;SDS011;11619;50.140;8.518;2023-05-10T08:01:43;3.65;;;2.42;;
22904;SDS011;11619;50.140;8.518;2023-05-10T08:04:10;5.18;;;2.50;;
22904;SDS011;11619;50.140;8.518;2023-05-10T08:06:37;3.60;;;2.40;;
22904;SDS011;11619;50.140;8.518;2023-05-10T08:09:04;2.30;;;2.05;;
22904;SDS011;11619;50.140;8.518;2023-05-10T08:11:30;4.90;;;2.28;;
22904;SDS011;11619;50.140;8.518;2023-05-10T08:14:00;1.85;;;1.73;;
22904;SDS011;11619;50.140;8.518;2023-05-10T08:16:26;6.25;;;1.90;;
22904;SDS011;11619;50.140;8.518;2023-05-10T08:18:53;4.10;;;1.90;;
22904;SDS011;11619;50.140;8.518;2023-05-10T08:21:21;5.88;;;2.50;;
22904;SDS011;11619;50.140;8.518;2023-05-10T08:23:47;5.82;;;2.40;;
22904;SDS011;11619;50.140;8.518;2023-05-10T08:26:14;4.85;;;2.50;;
22904;SDS011;11619;50.140;8.518;2023-05-10T08:28:41;4.57;;;2.50;;
22904;SDS011;11619;50.140;8.518;2023-05-10T08:31:07;5.22;;;3.03;;
22904;SDS011;11619;50.140;8.518;2023-05-10T08:33:34;3.28;;;2.42;;
22904;SDS011;11619;50.140;8.518;2023-05-10T08:36:00;4.88;;;2.75;;
22904;SDS011;11619;50.140;8.518;2023-05-10T08:38:26;4.07;;;2.40;;
22904;SDS011;11619;50.140;8.518;2023-05-10T08:40:54;2.35;;;2.13;;
22904;SDS011;11619;50.140;8.518;2023-05-10T08:43:26;6.88;;;2.15;;
22904;SDS011;11619;50.140;8.518;2023-05-10T08:45:54;6.47;;;2.10;;
22904;SDS011;11619;50.140;8.518;2023-05-10T08:48:22;4.72;;;1.92;;
22904;SDS011;11619;50.140;8.518;2023-05-10T08:50:52;5.05;;;2.22;;
22904;SDS011;11619;50.140;8.518;2023-05-10T08:53:19;3.33;;;2.25;;
22904;SDS011;11619;50.140;8.518;2023-05-10T08:55:47;5.32;;;2.10;;
22904;SDS011;11619;50.140;8.518;2023-05-10T08:58:13;4.03;;;2.25;;
22904;SDS011;11619;50.140;8.518;2023-05-10T09:00:40;7.28;;;2.05;;
22904;SDS011;11619;50.140;8.518;2023-05-10T09:03:07;8.00;;;2.58;;
22904;SDS011;11619;50.140;8.518;2023-05-10T09:05:33;4.05;;;2.40;;
22904;SDS011;11619;50.140;8.518;2023-05-10T09:08:00;3.28;;;1.83;;
22904;SDS011;11619;50.140;8.518;2023-05-10T09:10:29;4.60;;;2.13;;
22904;SDS011;11619;50.140;8.518;2023-05-10T09:12:56;2.45;;;1.75;;
22904;SDS011;11619;50.140;8.518;2023-05-10T09:15:24;3.00;;;1.85;;
22904;SDS011;11619;50.140;8.518;2023-05-10T09:17:51;1.70;;;1.60;;
22904;SDS011;11619;50.140;8.518;2023-05-10T09:20:17;2.25;;;1.63;;
22904;SDS011;11619;50.140;8.518;2023-05-10T09:22:44;3.65;;;1.90;;
22904;SDS011;11619;50.140;8.518;2023-05-10T09:25:12;2.67;;;1.38;;
22904;SDS011;11619;50.140;8.518;2023-05-10T09:27:40;5.15;;;1.77;;
22904;SDS011;11619;50.140;8.518;2023-05-10T09:30:10;4.57;;;1.85;;
22904;SDS011;11619;50.140;8.518;2023-05-10T09:32:41;2.80;;;1.55;;
22904;SDS011;11619;50.140;8.518;2023-05-10T09:37:35;2.47;;;1.45;;
22904;SDS011;11619;50.140;8.518;2023-05-10T09:40:05;2.13;;;1.65;;
22904;SDS011;11619;50.140;8.518;2023-05-10T09:42:33;3.22;;;1.83;;
22904;SDS011;11619;50.140;8.518;2023-05-10T09:45:02;2.42;;;1.65;;
22904;SDS011;11619;50.140;8.518;2023-05-10T09:47:31;3.63;;;1.63;;
22904;SDS011;11619;50.140;8.518;2023-05-10T09:49:59;3.58;;;1.85;;
22904;SDS011;11619;50.140;8.518;2023-05-10T09:52:30;2.88;;;1.85;;
22904;SDS011;11619;50.140;8.518;2023-05-10T09:54:57;2.13;;;1.80;;
22904;SDS011;11619;50.140;8.518;2023-05-10T09:57:24;4.32;;;2.05;;
22904;SDS011;11619;50.140;8.518;2023-05-10T09:59:51;3.88;;;2.22;;
22904;SDS011;11619;50.140;8.518;2023-05-10T10:02:20;1.92;;;1.70;;
22904;SDS011;11619;50.140;8.518;2023-05-10T10:04:48;4.63;;;2.22;;
22904;SDS011;11619;50.140;8.518;2023-05-10T10:07:15;3.35;;;1.90;;
22904;SDS011;11619;50.140;8.518;2023-05-10T10:09:48;3.55;;;2.10;;
22904;SDS011;11619;50.140;8.518;2023-05-10T10:12:15;3.13;;;2.13;;
22904;SDS011;11619;50.140;8.518;2023-05-10T10:14:41;5.15;;;2.28;;
22904;SDS011;11619;50.140;8.518;2023-05-10T10:17:07;5.43;;;2.28;;
22904;SDS011;11619;50.140;8.518;2023-05-10T10:19:35;3.85;;;2.30;;
22904;SDS011;11619;50.140;8.518;2023-05-10T10:22:03;2.35;;;1.85;;
22904;SDS011;11619;50.140;8.518;2023-05-10T10:24:30;3.95;;;2.13;;
22904;SDS011;11619;50.140;8.518;2023-05-10T10:26:57;3.00;;;1.80;;
22904;SDS011;11619;50.140;8.518;2023-05-10T10:29:50;1.50;;;1.20;;
22904;SDS011;11619;50.140;8.518;2023-05-10T10:32:42;2.30;;;1.50;;
22904;SDS011;11619;50.140;8.518;2023-05-10T10:35:19;3.65;;;0.73;;
22904;SDS011;11619;50.140;8.518;2023-05-10T10:37:46;1.58;;;0.80;;
22904;SDS011;11619;50.140;8.518;2023-05-10T10:40:29;5.07;;;1.10;;
22904;SDS011;11619;50.140;8.518;2023-05-10T10:48:50;1.88;;;1.13;;
22904;SDS011;11619;50.140;8.518;2023-05-10T10:51:37;1.63;;;1.30;;
22904;SDS011;11619;50.140;8.518;2023-05-10T10:54:21;2.90;;;1.27;;
22904;SDS011;11619;50.140;8.518;2023-05-10T10:57:10;2.75;;;1.30;;
22904;SDS011;11619;50.140;8.518;2023-05-10T10:59:41;3.53;;;1.20;;
22904;SDS011;11619;50.140;8.518;2023-05-10T11:02:09;3.35;;;1.20;;
22904;SDS011;11619;50.140;8.518;2023-05-10T11:04:44;1.92;;;1.15;;
22904;SDS011;11619;50.140;8.518;2023-05-10T11:07:15;4.05;;;1.38;;
22904;SDS011;11619;50.140;8.518;2023-05-10T11:09:42;2.10;;;1.30;;
22904;SDS011;11619;50.140;8.518;2023-05-10T11:12:09;2.70;;;1.27;;
22904;SDS011;11619;50.140;8.518;2023-05-10T11:14:35;3.13;;;1.33;;
22904;SDS011;11619;50.140;8.518;2023-05-10T11:17:02;4.47;;;1.27;;
22904;SDS011;11619;50.140;8.518;2023-05-10T11:20:07;3.08;;;1.05;;
22904;SDS011;11619;50.140;8.518;2023-05-10T11:22:51;2.35;;;0.90;;
22904;SDS011;11619;50.140;8.518;2023-05-10T11:25:18;1.23;;;0.82;;
22904;SDS011;11619;50.140;8.518;2023-05-10T11:27:45;3.67;;;0.95;;
22904;SDS011;11619;50.140;8.518;2023-05-10T11:30:14;2.35;;;1.00;;
22904;SDS011;11619;50.140;8.518;2023-05-10T11:32:41;1.45;;;1.00;;
22904;SDS011;11619;50.140;8.518;2023-05-10T11:35:08;2.45;;;1.15;;
22904;SDS011;11619;50.140;8.518;2023-05-10T11:37:35;1.13;;;1.00;;
22904;SDS011;11619;50.140;8.518;2023-05-10T11:40:02;1.50;;;1.10;;
22904;SDS011;11619;50.140;8.518;2023-05-10T11:42:29;2.42;;;1.10;;
22904;SDS011;11619;50.140;8.518;2023-05-10T11:44:56;5.95;;;1.10;;
22904;SDS011;11619;50.140;8.518;2023-05-10T11:47:22;2.72;;;0.95;;
22904;SDS011;11619;50.140;8.518;2023-05-10T11:49:49;1.25;;;0.90;;
22904;SDS011;11619;50.140;8.518;2023-05-10T11:52:17;2.95;;;1.05;;
22904;SDS011;11619;50.140;8.518;2023-05-10T11:54:51;2.20;;;0.77;;
22904;SDS011;11619;50.140;8.518;2023-05-10T11:57:18;3.78;;;1.00;;
22904;SDS011;11619;50.140;8.518;2023-05-10T11:59:46;0.65;;;0.60;;
22904;SDS011;11619;50.140;8.518;2023-05-10T12:02:13;1.00;;;0.73;;
22904;SDS011;11619;50.140;8.518;2023-05-10T12:04:40;1.52;;;0.80;;
22904;SDS011;11619;50.140;8.518;2023-05-10T12:07:07;3.33;;;0.98;;
22904;SDS011;11619;50.140;8.518;2023-05-10T12:09:33;1.55;;;0.90;;
22904;SDS011;11619;50.140;8.518;2023-05-10T12:12:09;1.00;;;0.80;;
22904;SDS011;11619;50.140;8.518;2023-05-10T12:14:36;1.55;;;0.82;;
22904;SDS011;11619;50.140;8.518;2023-05-10T12:17:02;2.90;;;1.05;;
22904;SDS011;11619;50.140;8.518;2023-05-10T12:19:36;2.28;;;1.20;;
22904;SDS011;11619;50.140;8.518;2023-05-10T12:22:06;1.63;;;0.90;;
22904;SDS011;11619;50.140;8.518;2023-05-10T12:24:36;0.70;;;0.70;;
22904;SDS011;11619;50.140;8.518;2023-05-10T12:27:04;2.70;;;0.80;;
22904;SDS011;11619;50.140;8.518;2023-05-10T12:29:33;1.67;;;0.95;;
22904;SDS011;11619;50.140;8.518;2023-05-10T12:31:59;3.50;;;0.70;;
22904;SDS011;11619;50.140;8.518;2023-05-10T12:34:35;1.20;;;0.63;;
22904;SDS011;11619;50.140;8.518;2023-05-10T12:37:04;2.05;;;0.75;;
22904;SDS011;11619;50.140;8.518;2023-05-10T12:39:40;2.17;;;0.80;;
22904;SDS011;11619;50.140;8.518;2023-05-10T12:42:08;4.68;;;1.05;;
22904;SDS011;11619;50.140;8.518;2023-05-10T12:44:34;1.17;;;0.70;;
22904;SDS011;11619;50.140;8.518;2023-05-10T12:47:01;1.13;;;0.77;;
22904;SDS011;11619;50.140;8.518;2023-05-10T12:49:27;1.42;;;0.77;;
22904;SDS011;11619;50.140;8.518;2023-05-10T12:51:53;0.68;;;0.68;;
22904;SDS011;11619;50.140;8.518;2023-05-10T12:54:20;1.80;;;0.70;;
22904;SDS011;11619;50.140;8.518;2023-05-10T12:56:46;1.00;;;0.80;;
22904;SDS011;11619;50.140;8.518;2023-05-10T12:59:13;2.22;;;0.88;;
22904;SDS011;11619;50.140;8.518;2023-05-10T13:01:39;1.05;;;0.60;;
22904;SDS011;11619;50.140;8.518;2023-05-10T13:04:06;2.83;;;0.82;;
22904;SDS011;11619;50.140;8.518;2023-05-10T13:06:32;1.63;;;0.70;;
22904;SDS011;11619;50.140;8.518;2023-05-10T13:08:59;2.13;;;0.80;;
22904;SDS011;11619;50.140;8.518;2023-05-10T13:11:25;2.65;;;1.00;;
22904;SDS011;11619;50.140;8.518;2023-05-10T13:13:52;1.38;;;0.80;;
22904;SDS011;11619;50.140;8.518;2023-05-10T13:16:18;3.92;;;0.70;;
22904;SDS011;11619;50.140;8.518;2023-05-10T13:18:45;1.02;;;0.82;;
22904;SDS011;11619;50.140;8.518;2023-05-10T13:21:11;3.20;;;0.80;;
22904;SDS011;11619;50.140;8.518;2023-05-10T13:23:37;0.85;;;0.85;;
22904;SDS011;11619;50.140;8.518;2023-05-10T13:26:04;2.28;;;0.90;;
22904;SDS011;11619;50.140;8.518;2023-05-10T13:28:30;2.15;;;0.70;;
22904;SDS011;11619;50.140;8.518;2023-05-10T13:30:57;2.30;;;1.08;;
22904;SDS011;11619;50.140;8.518;2023-05-10T13:33:23;1.13;;;1.00;;
22904;SDS011;11619;50.140;8.518;2023-05-10T13:35:50;0.85;;;0.70;;
22904;SDS011;11619;50.140;8.518;2023-05-10T13:38:17;2.85;;;1.15;;
22904;SDS011;11619;50.140;8.518;2023-05-10T13:40:47;3.45;;;0.70;;
22904;SDS011;11619;50.140;8.518;2023-05-10T13:43:14;2.00;;;0.90;;
22904;SDS011;11619;50.140;8.518;2023-05-10T13:45:41;0.75;;;0.75;;
22904;SDS011;11619;50.140;8.518;2023-05-10T13:48:07;1.38;;;0.80;;
22904;SDS011;11619;50.140;8.518;2023-05-10T13:50:34;0.90;;;0.60;;
22904;SDS011;11619;50.140;8.518;2023-05-10T13:53:00;1.08;;;0.50;;
22904;SDS011;11619;50.140;8.518;2023-05-10T13:55:27;0.63;;;0.50;;
22904;SDS011;11619;50.140;8.518;2023-05-10T13:57:53;0.68;;;0.45;;
22904;SDS011;11619;50.140;8.518;2023-05-10T14:00:19;0.85;;;0.63;;
22904;SDS011;11619;50.140;8.518;2023-05-10T14:02:46;1.05;;;0.63;;
22904;SDS011;11619;50.140;8.518;2023-05-10T14:05:12;1.33;;;1.10;;
22904;SDS011;11619;50.140;8.518;2023-05-10T14:07:39;2.08;;;0.60;;
22904;SDS011;11619;50.140;8.518;2023-05-10T14:10:05;2.15;;;0.63;;
22904;SDS011;11619;50.140;8.518;2023-05-10T14:12:32;2.13;;;0.80;;
22904;SDS011;11619;50.140;8.518;2023-05-10T14:14:59;0.70;;;0.70;;
22904;SDS011;11619;50.140;8.518;2023-05-10T14:17:25;0.85;;;0.50;;
22904;SDS011;11619;50.140;8.518;2023-05-10T14:19:52;0.70;;;0.57;;
22904;SDS011;11619;50.140;8.518;2023-05-10T14:22:19;2.15;;;0.50;;
22904;SDS011;11619;50.140;8.518;2023-05-10T14:24:45;2.50;;;0.77;;
22904;SDS011;11619;50.140;8.518;2023-05-10T14:27:13;0.50;;;0.50;;
22904;SDS011;11619;50.140;8.518;2023-05-10T14:29:39;0.40;;;0.40;;
22904;SDS011;11619;50.140;8.518;2023-05-10T14:32:05;0.50;;;0.50;;
22904;SDS011;11619;50.140;8.518;2023-05-10T14:34:32;0.60;;;0.60;;
22904;SDS011;11619;50.140;8.518;2023-05-10T14:36:59;0.60;;;0.60;;
22904;SDS011;11619;50.140;8.518;2023-05-10T14:39:25;0.50;;;0.50;;
22904;SDS011;11619;50.140;8.518;2023-05-10T14:41:55;1.83;;;0.70;;
22904;SDS011;11619;50.140;8.518;2023-05-10T14:44:22;0.73;;;0.43;;
22904;SDS011;11619;50.140;8.518;2023-05-10T14:46:49;1.67;;;0.82;;
22904;SDS011;11619;50.140;8.518;2023-05-10T14:49:16;1.00;;;0.60;;
22904;SDS011;11619;50.140;8.518;2023-05-10T14:51:42;0.52;;;0.50;;
22904;SDS011;11619;50.140;8.518;2023-05-10T14:54:08;2.15;;;0.65;;
22904;SDS011;11619;50.140;8.518;2023-05-10T14:56:35;2.55;;;0.70;;
22904;SDS011;11619;50.140;8.518;2023-05-10T14:59:03;3.55;;;0.57;;
22904;SDS011;11619;50.140;8.518;2023-05-10T15:01:30;0.90;;;0.80;;
22904;SDS011;11619;50.140;8.518;2023-05-10T15:03:59;1.27;;;0.40;;
22904;SDS011;11619;50.140;8.518;2023-05-10T15:06:33;3.05;;;0.38;;
22904;SDS011;11619;50.140;8.518;2023-05-10T15:09:01;0.75;;;0.45;;
22904;SDS011;11619;50.140;8.518;2023-05-10T15:11:29;2.38;;;0.60;;
22904;SDS011;11619;50.140;8.518;2023-05-10T15:13:56;0.93;;;0.60;;